sensor_id;sensor_type;location;lat;lon;timestamp;P1;durP1;ratioP1;P2;durP2;ratioP2
46815;SDS011;32787;53.316;8.670;2023-12-29T00:00:05;11.70;;;2.60;;
46815;SDS011;32787;53.316;8.670;2023-12-29T00:02:31;9.95;;;2.33;;
46815;SDS011;32787;53.316;8.670;2023-12-29T00:04:57;13.70;;;2.63;;
46815;SDS011;32787;53.316;8.670;2023-12-29T00:07:22;18.10;;;2.90;;
46815;SDS011;32787;53.316;8.670;2023-12-29T00:09:48;10.43;;;2.67;;
46815;SDS011;32787;53.316;8.670;2023-12-29T00:12:14;12.30;;;2.40;;
46815;SDS011;32787;53.316;8.670;2023-12-29T00:14:39;13.77;;;2.88;;
46815;SDS011;32787;53.316;8.670;2023-12-29T00:17:05;12.43;;;2.83;;
46815;SDS011;32787;53.316;8.670;2023-12-29T00:19:31;10.98;;;2.85;;
46815;SDS011;32787;53.316;8.670;2023-12-29T00:21:57;14.38;;;2.80;;
46815;SDS011;32787;53.316;8.670;2023-12-29T00:24:24;12.00;;;2.58;;
46815;SDS011;32787;53.316;8.670;2023-12-29T00:26:51;14.30;;;2.92;;
46815;SDS011;32787;53.316;8.670;2023-12-29T00:29:16;14.05;;;2.65;;
46815;SDS011;32787;53.316;8.670;2023-12-29T00:31:42;16.55;;;2.60;;
46815;SDS011;32787;53.316;8.670;2023-12-29T00:34:08;11.90;;;2.40;;
46815;SDS011;32787;53.316;8.670;2023-12-29T00:36:33;12.82;;;2.90;;
46815;SDS011;32787;53.316;8.670;2023-12-29T00:38:59;13.65;;;3.15;;
46815;SDS011;32787;53.316;8.670;2023-12-29T00:41:25;12.60;;;2.83;;
46815;SDS011;32787;53.316;8.670;2023-12-29T00:43:50;11.23;;;2.80;;
46815;SDS011;32787;53.316;8.670;2023-12-29T00:46:16;14.23;;;2.35;;
46815;SDS011;32787;53.316;8.670;2023-12-29T00:48:42;10.90;;;2.58;;
46815;SDS011;32787;53.316;8.670;2023-12-29T00:51:08;14.27;;;2.85;;
46815;SDS011;32787;53.316;8.670;2023-12-29T00:53:36;13.27;;;2.72;;
46815;SDS011;32787;53.316;8.670;2023-12-29T00:56:02;14.23;;;2.88;;
46815;SDS011;32787;53.316;8.670;2023-12-29T00:58:28;16.38;;;3.40;;
46815;SDS011;32787;53.316;8.670;2023-12-29T01:00:53;14.25;;;3.40;;
46815;SDS011;32787;53.316;8.670;2023-12-29T01:03:19;19.20;;;3.60;;
46815;SDS011;32787;53.316;8.670;2023-12-29T01:05:45;19.05;;;4.50;;
46815;SDS011;32787;53.316;8.670;2023-12-29T01:08:11;36.92;;;14.38;;
46815;SDS011;32787;53.316;8.670;2023-12-29T01:10:37;21.55;;;3.55;;
46815;SDS011;32787;53.316;8.670;2023-12-29T01:13:03;12.25;;;3.10;;
46815;SDS011;32787;53.316;8.670;2023-12-29T01:15:29;35.10;;;12.63;;
46815;SDS011;32787;53.316;8.670;2023-12-29T01:17:55;14.07;;;3.10;;
46815;SDS011;32787;53.316;8.670;2023-12-29T01:20:20;11.20;;;2.80;;
46815;SDS011;32787;53.316;8.670;2023-12-29T01:22:46;16.25;;;3.50;;
46815;SDS011;32787;53.316;8.670;2023-12-29T01:25:12;16.83;;;2.72;;
46815;SDS011;32787;53.316;8.670;2023-12-29T01:27:37;10.57;;;3.00;;
46815;SDS011;32787;53.316;8.670;2023-12-29T01:30:03;13.40;;;3.10;;
46815;SDS011;32787;53.316;8.670;2023-12-29T01:32:30;11.63;;;2.70;;
46815;SDS011;32787;53.316;8.670;2023-12-29T01:34:55;12.25;;;2.28;;
46815;SDS011;32787;53.316;8.670;2023-12-29T01:37:21;9.38;;;1.90;;
46815;SDS011;32787;53.316;8.670;2023-12-29T01:39:47;13.13;;;2.47;;
46815;SDS011;32787;53.316;8.670;2023-12-29T01:42:12;12.77;;;3.58;;
46815;SDS011;32787;53.316;8.670;2023-12-29T01:44:38;12.30;;;2.95;;
46815;SDS011;32787;53.316;8.670;2023-12-29T01:47:04;12.38;;;2.50;;
46815;SDS011;32787;53.316;8.670;2023-12-29T01:49:37;11.57;;;2.47;;
46815;SDS011;32787;53.316;8.670;2023-12-29T01:52:03;10.98;;;2.45;;
46815;SDS011;32787;53.316;8.670;2023-12-29T01:54:32;8.65;;;2.40;;
46815;SDS011;32787;53.316;8.670;2023-12-29T01:57:00;10.10;;;2.40;;
46815;SDS011;32787;53.316;8.670;2023-12-29T01:59:27;12.13;;;2.50;;
46815;SDS011;32787;53.316;8.670;2023-12-29T02:01:57;10.90;;;2.25;;
46815;SDS011;32787;53.316;8.670;2023-12-29T02:04:23;10.98;;;2.55;;
46815;SDS011;32787;53.316;8.670;2023-12-29T02:06:50;12.70;;;2.35;;
46815;SDS011;32787;53.316;8.670;2023-12-29T02:09:17;9.02;;;1.98;;
46815;SDS011;32787;53.316;8.670;2023-12-29T02:11:42;10.25;;;2.40;;
46815;SDS011;32787;53.316;8.670;2023-12-29T02:14:09;9.27;;;1.70;;
46815;SDS011;32787;53.316;8.670;2023-12-29T02:16:40;11.82;;;2.47;;
46815;SDS011;32787;53.316;8.670;2023-12-29T02:19:12;10.05;;;1.77;;
46815;SDS011;32787;53.316;8.670;2023-12-29T02:21:49;10.05;;;1.70;;
46815;SDS011;32787;53.316;8.670;2023-12-29T02:24:14;8.88;;;1.98;;
46815;SDS011;32787;53.316;8.670;2023-12-29T02:26:40;8.75;;;1.80;;
46815;SDS011;32787;53.316;8.670;2023-12-29T02:29:11;8.93;;;1.65;;
46815;SDS011;32787;53.316;8.670;2023-12-29T02:31:42;8.88;;;1.60;;
46815;SDS011;32787;53.316;8.670;2023-12-29T02:34:10;8.60;;;1.60;;
46815;SDS011;32787;53.316;8.670;2023-12-29T02:36:39;6.32;;;1.70;;
46815;SDS011;32787;53.316;8.670;2023-12-29T02:39:08;12.43;;;1.90;;
46815;SDS011;32787;53.316;8.670;2023-12-29T02:41:35;15.40;;;2.25;;
46815;SDS011;32787;53.316;8.670;2023-12-29T02:44:02;9.98;;;2.05;;
46815;SDS011;32787;53.316;8.670;2023-12-29T02:46:28;6.30;;;1.95;;
46815;SDS011;32787;53.316;8.670;2023-12-29T02:48:54;10.75;;;1.83;;
46815;SDS011;32787;53.316;8.670;2023-12-29T02:51:19;9.68;;;2.20;;
46815;SDS011;32787;53.316;8.670;2023-12-29T02:53:45;8.82;;;2.00;;
46815;SDS011;32787;53.316;8.670;2023-12-29T02:56:12;10.73;;;2.17;;
46815;SDS011;32787;53.316;8.670;2023-12-29T02:58:38;9.35;;;2.28;;
46815;SDS011;32787;53.316;8.670;2023-12-29T03:01:03;9.38;;;2.72;;
46815;SDS011;32787;53.316;8.670;2023-12-29T03:03:29;9.00;;;2.35;;
46815;SDS011;32787;53.316;8.670;2023-12-29T03:05:54;13.23;;;2.88;;
46815;SDS011;32787;53.316;8.670;2023-12-29T03:08:20;13.10;;;2.42;;
46815;SDS011;32787;53.316;8.670;2023-12-29T03:10:46;13.82;;;3.00;;
46815;SDS011;32787;53.316;8.670;2023-12-29T03:13:11;13.45;;;2.83;;
46815;SDS011;32787;53.316;8.670;2023-12-29T03:15:37;11.07;;;2.10;;
46815;SDS011;32787;53.316;8.670;2023-12-29T03:18:02;13.00;;;2.60;;
46815;SDS011;32787;53.316;8.670;2023-12-29T03:20:28;12.77;;;2.05;;
46815;SDS011;32787;53.316;8.670;2023-12-29T03:22:54;7.90;;;1.75;;
46815;SDS011;32787;53.316;8.670;2023-12-29T03:25:20;7.20;;;1.65;;
46815;SDS011;32787;53.316;8.670;2023-12-29T03:27:46;9.48;;;1.48;;
46815;SDS011;32787;53.316;8.670;2023-12-29T03:30:11;10.13;;;1.27;;
46815;SDS011;32787;53.316;8.670;2023-12-29T03:32:37;4.93;;;1.00;;
46815;SDS011;32787;53.316;8.670;2023-12-29T03:35:03;6.35;;;1.10;;
46815;SDS011;32787;53.316;8.670;2023-12-29T03:37:29;7.90;;;1.55;;
46815;SDS011;32787;53.316;8.670;2023-12-29T03:39:55;4.18;;;0.90;;
46815;SDS011;32787;53.316;8.670;2023-12-29T03:42:21;6.18;;;1.02;;
46815;SDS011;32787;53.316;8.670;2023-12-29T03:44:46;6.60;;;1.40;;
46815;SDS011;32787;53.316;8.670;2023-12-29T03:47:12;6.22;;;1.40;;
46815;SDS011;32787;53.316;8.670;2023-12-29T03:49:37;7.18;;;1.00;;
46815;SDS011;32787;53.316;8.670;2023-12-29T03:52:03;4.95;;;1.30;;
46815;SDS011;32787;53.316;8.670;2023-12-29T03:54:29;7.30;;;1.08;;
46815;SDS011;32787;53.316;8.670;2023-12-29T03:56:54;7.90;;;1.05;;
46815;SDS011;32787;53.316;8.670;2023-12-29T03:59:20;4.65;;;1.25;;
46815;SDS011;32787;53.316;8.670;2023-12-29T04:01:46;9.07;;;1.40;;
46815;SDS011;32787;53.316;8.670;2023-12-29T04:04:11;7.38;;;1.10;;
46815;SDS011;32787;53.316;8.670;2023-12-29T04:06:37;7.93;;;1.42;;
46815;SDS011;32787;53.316;8.670;2023-12-29T04:09:03;8.93;;;1.55;;
46815;SDS011;32787;53.316;8.670;2023-12-29T04:11:28;11.02;;;1.40;;
46815;SDS011;32787;53.316;8.670;2023-12-29T04:13:54;10.73;;;1.83;;
46815;SDS011;32787;53.316;8.670;2023-12-29T04:16:19;14.13;;;2.15;;
46815;SDS011;32787;53.316;8.670;2023-12-29T04:18:45;13.73;;;1.88;;
46815;SDS011;32787;53.316;8.670;2023-12-29T04:21:14;14.07;;;1.85;;
46815;SDS011;32787;53.316;8.670;2023-12-29T04:23:40;15.30;;;1.70;;
46815;SDS011;32787;53.316;8.670;2023-12-29T04:26:09;15.55;;;2.65;;
46815;SDS011;32787;53.316;8.670;2023-12-29T04:28:34;11.68;;;1.63;;
46815;SDS011;32787;53.316;8.670;2023-12-29T04:31:00;10.07;;;1.65;;
46815;SDS011;32787;53.316;8.670;2023-12-29T04:33:25;10.63;;;1.80;;
46815;SDS011;32787;53.316;8.670;2023-12-29T04:35:51;12.10;;;2.00;;
46815;SDS011;32787;53.316;8.670;2023-12-29T04:38:17;9.32;;;2.28;;
46815;SDS011;32787;53.316;8.670;2023-12-29T04:40:45;10.95;;;1.25;;
46815;SDS011;32787;53.316;8.670;2023-12-29T04:43:12;13.10;;;1.85;;
46815;SDS011;32787;53.316;8.670;2023-12-29T04:45:38;10.98;;;2.17;;
46815;SDS011;32787;53.316;8.670;2023-12-29T04:48:03;11.88;;;1.70;;
46815;SDS011;32787;53.316;8.670;2023-12-29T04:50:29;15.00;;;1.70;;
46815;SDS011;32787;53.316;8.670;2023-12-29T04:52:55;7.47;;;1.50;;
46815;SDS011;32787;53.316;8.670;2023-12-29T04:55:21;17.55;;;2.42;;
46815;SDS011;32787;53.316;8.670;2023-12-29T04:57:46;7.82;;;1.40;;
46815;SDS011;32787;53.316;8.670;2023-12-29T05:00:12;12.27;;;2.00;;
46815;SDS011;32787;53.316;8.670;2023-12-29T05:02:38;14.85;;;2.90;;
46815;SDS011;32787;53.316;8.670;2023-12-29T05:05:04;17.60;;;2.88;;
46815;SDS011;32787;53.316;8.670;2023-12-29T05:07:30;13.88;;;2.75;;
46815;SDS011;32787;53.316;8.670;2023-12-29T05:09:55;16.52;;;2.67;;
46815;SDS011;32787;53.316;8.670;2023-12-29T05:12:21;17.42;;;2.35;;
46815;SDS011;32787;53.316;8.670;2023-12-29T05:14:47;14.05;;;3.03;;
46815;SDS011;32787;53.316;8.670;2023-12-29T05:17:12;11.35;;;2.45;;
46815;SDS011;32787;53.316;8.670;2023-12-29T05:19:38;17.23;;;2.45;;
46815;SDS011;32787;53.316;8.670;2023-12-29T05:22:03;12.13;;;2.83;;
46815;SDS011;32787;53.316;8.670;2023-12-29T05:24:29;10.90;;;2.55;;
46815;SDS011;32787;53.316;8.670;2023-12-29T05:26:55;18.60;;;2.92;;
46815;SDS011;32787;53.316;8.670;2023-12-29T05:29:20;15.23;;;3.55;;
46815;SDS011;32787;53.316;8.670;2023-12-29T05:31:46;18.17;;;3.72;;
46815;SDS011;32787;53.316;8.670;2023-12-29T05:34:11;21.63;;;3.40;;
46815;SDS011;32787;53.316;8.670;2023-12-29T05:36:38;18.65;;;3.33;;
46815;SDS011;32787;53.316;8.670;2023-12-29T05:39:03;16.70;;;3.88;;
46815;SDS011;32787;53.316;8.670;2023-12-29T05:41:29;22.90;;;3.92;;
46815;SDS011;32787;53.316;8.670;2023-12-29T05:43:55;17.25;;;3.20;;
46815;SDS011;32787;53.316;8.670;2023-12-29T05:46:22;17.38;;;3.15;;
46815;SDS011;32787;53.316;8.670;2023-12-29T05:48:48;20.48;;;3.47;;
46815;SDS011;32787;53.316;8.670;2023-12-29T05:51:16;14.55;;;3.17;;
46815;SDS011;32787;53.316;8.670;2023-12-29T05:53:42;21.25;;;4.30;;
46815;SDS011;32787;53.316;8.670;2023-12-29T05:56:10;15.75;;;3.10;;
46815;SDS011;32787;53.316;8.670;2023-12-29T05:58:37;14.73;;;3.03;;
46815;SDS011;32787;53.316;8.670;2023-12-29T06:01:02;16.67;;;3.22;;
46815;SDS011;32787;53.316;8.670;2023-12-29T06:03:28;21.05;;;4.28;;
46815;SDS011;32787;53.316;8.670;2023-12-29T06:05:54;22.38;;;3.95;;
46815;SDS011;32787;53.316;8.670;2023-12-29T06:08:20;19.25;;;3.40;;
46815;SDS011;32787;53.316;8.670;2023-12-29T06:10:45;18.92;;;3.25;;
46815;SDS011;32787;53.316;8.670;2023-12-29T06:13:11;21.13;;;3.60;;
46815;SDS011;32787;53.316;8.670;2023-12-29T06:15:37;19.17;;;3.63;;
46815;SDS011;32787;53.316;8.670;2023-12-29T06:18:03;25.52;;;3.88;;
46815;SDS011;32787;53.316;8.670;2023-12-29T06:20:29;22.90;;;3.45;;
46815;SDS011;32787;53.316;8.670;2023-12-29T06:22:55;24.98;;;3.90;;
46815;SDS011;32787;53.316;8.670;2023-12-29T06:25:21;22.50;;;3.00;;
46815;SDS011;32787;53.316;8.670;2023-12-29T06:27:47;22.25;;;3.63;;
46815;SDS011;32787;53.316;8.670;2023-12-29T06:30:13;21.73;;;3.70;;
46815;SDS011;32787;53.316;8.670;2023-12-29T06:32:40;26.23;;;4.35;;
46815;SDS011;32787;53.316;8.670;2023-12-29T06:35:06;15.80;;;3.38;;
46815;SDS011;32787;53.316;8.670;2023-12-29T06:37:34;24.00;;;3.55;;
46815;SDS011;32787;53.316;8.670;2023-12-29T06:40:02;21.58;;;3.65;;
46815;SDS011;32787;53.316;8.670;2023-12-29T06:42:28;25.77;;;3.88;;
46815;SDS011;32787;53.316;8.670;2023-12-29T06:44:54;18.77;;;3.38;;
46815;SDS011;32787;53.316;8.670;2023-12-29T06:47:20;21.67;;;2.92;;
46815;SDS011;32787;53.316;8.670;2023-12-29T06:49:45;23.33;;;3.83;;
46815;SDS011;32787;53.316;8.670;2023-12-29T06:52:11;15.77;;;3.47;;
46815;SDS011;32787;53.316;8.670;2023-12-29T06:54:37;14.60;;;2.83;;
46815;SDS011;32787;53.316;8.670;2023-12-29T06:57:02;23.70;;;3.58;;
46815;SDS011;32787;53.316;8.670;2023-12-29T06:59:28;23.58;;;3.88;;
46815;SDS011;32787;53.316;8.670;2023-12-29T07:01:54;19.63;;;2.70;;
46815;SDS011;32787;53.316;8.670;2023-12-29T07:04:19;16.95;;;2.55;;
46815;SDS011;32787;53.316;8.670;2023-12-29T07:06:45;20.98;;;3.28;;
46815;SDS011;32787;53.316;8.670;2023-12-29T07:09:11;22.33;;;3.85;;
46815;SDS011;32787;53.316;8.670;2023-12-29T07:11:36;18.48;;;3.13;;
46815;SDS011;32787;53.316;8.670;2023-12-29T07:14:02;18.27;;;4.03;;
46815;SDS011;32787;53.316;8.670;2023-12-29T07:16:28;14.65;;;2.65;;
46815;SDS011;32787;53.316;8.670;2023-12-29T07:18:53;22.10;;;3.10;;
46815;SDS011;32787;53.316;8.670;2023-12-29T07:21:19;20.10;;;3.50;;
46815;SDS011;32787;53.316;8.670;2023-12-29T07:23:45;20.77;;;2.97;;
46815;SDS011;32787;53.316;8.670;2023-12-29T07:26:11;13.98;;;2.88;;
46815;SDS011;32787;53.316;8.670;2023-12-29T07:28:36;19.02;;;3.58;;
46815;SDS011;32787;53.316;8.670;2023-12-29T07:31:02;13.20;;;3.17;;
46815;SDS011;32787;53.316;8.670;2023-12-29T07:33:28;18.20;;;2.80;;
46815;SDS011;32787;53.316;8.670;2023-12-29T07:35:53;15.40;;;2.13;;
46815;SDS011;32787;53.316;8.670;2023-12-29T07:38:19;17.55;;;2.50;;
46815;SDS011;32787;53.316;8.670;2023-12-29T07:40:45;17.90;;;2.58;;
46815;SDS011;32787;53.316;8.670;2023-12-29T07:43:12;13.95;;;2.45;;
46815;SDS011;32787;53.316;8.670;2023-12-29T07:45:38;11.88;;;2.47;;
46815;SDS011;32787;53.316;8.670;2023-12-29T07:48:04;16.40;;;2.70;;
46815;SDS011;32787;53.316;8.670;2023-12-29T07:50:30;17.40;;;3.08;;
46815;SDS011;32787;53.316;8.670;2023-12-29T07:52:56;20.92;;;3.30;;
46815;SDS011;32787;53.316;8.670;2023-12-29T07:55:22;13.57;;;2.60;;
46815;SDS011;32787;53.316;8.670;2023-12-29T07:57:48;17.90;;;2.75;;
46815;SDS011;32787;53.316;8.670;2023-12-29T08:00:16;16.65;;;3.47;;
46815;SDS011;32787;53.316;8.670;2023-12-29T08:02:42;25.20;;;4.10;;
46815;SDS011;32787;53.316;8.670;2023-12-29T08:05:08;17.05;;;3.42;;
46815;SDS011;32787;53.316;8.670;2023-12-29T08:07:34;14.25;;;2.97;;
46815;SDS011;32787;53.316;8.670;2023-12-29T08:10:02;21.85;;;3.30;;
46815;SDS011;32787;53.316;8.670;2023-12-29T08:12:29;16.88;;;3.50;;
46815;SDS011;32787;53.316;8.670;2023-12-29T08:14:55;16.70;;;3.40;;
46815;SDS011;32787;53.316;8.670;2023-12-29T08:17:21;27.23;;;3.45;;
46815;SDS011;32787;53.316;8.670;2023-12-29T08:19:47;22.45;;;3.70;;
46815;SDS011;32787;53.316;8.670;2023-12-29T08:22:12;20.42;;;4.00;;
46815;SDS011;32787;53.316;8.670;2023-12-29T08:24:42;17.40;;;4.47;;
46815;SDS011;32787;53.316;8.670;2023-12-29T08:27:13;17.95;;;4.38;;
46815;SDS011;32787;53.316;8.670;2023-12-29T08:29:40;28.03;;;3.53;;
46815;SDS011;32787;53.316;8.670;2023-12-29T08:32:05;19.10;;;3.33;;
46815;SDS011;32787;53.316;8.670;2023-12-29T08:34:32;23.08;;;3.15;;
46815;SDS011;32787;53.316;8.670;2023-12-29T08:36:59;23.67;;;3.03;;
46815;SDS011;32787;53.316;8.670;2023-12-29T08:39:25;12.30;;;2.28;;
46815;SDS011;32787;53.316;8.670;2023-12-29T08:41:50;12.05;;;1.95;;
46815;SDS011;32787;53.316;8.670;2023-12-29T08:44:16;21.55;;;3.58;;
46815;SDS011;32787;53.316;8.670;2023-12-29T08:46:42;13.48;;;2.00;;
46815;SDS011;32787;53.316;8.670;2023-12-29T08:49:08;17.58;;;2.47;;
46815;SDS011;32787;53.316;8.670;2023-12-29T08:51:34;11.82;;;1.80;;
46815;SDS011;32787;53.316;8.670;2023-12-29T08:53:59;11.23;;;1.80;;
46815;SDS011;32787;53.316;8.670;2023-12-29T08:56:25;14.45;;;2.10;;
46815;SDS011;32787;53.316;8.670;2023-12-29T08:58:51;16.40;;;2.38;;
46815;SDS011;32787;53.316;8.670;2023-12-29T09:01:17;13.73;;;2.15;;
46815;SDS011;32787;53.316;8.670;2023-12-29T09:03:43;15.63;;;2.47;;
46815;SDS011;32787;53.316;8.670;2023-12-29T09:06:09;15.10;;;2.33;;
46815;SDS011;32787;53.316;8.670;2023-12-29T09:08:35;8.90;;;1.60;;
46815;SDS011;32787;53.316;8.670;2023-12-29T09:11:01;17.20;;;2.58;;
46815;SDS011;32787;53.316;8.670;2023-12-29T09:13:27;16.73;;;2.50;;
46815;SDS011;32787;53.316;8.670;2023-12-29T09:15:54;15.35;;;2.47;;
46815;SDS011;32787;53.316;8.670;2023-12-29T09:18:20;16.15;;;2.63;;
46815;SDS011;32787;53.316;8.670;2023-12-29T09:20:45;15.32;;;3.00;;
46815;SDS011;32787;53.316;8.670;2023-12-29T09:23:12;23.65;;;3.53;;
46815;SDS011;32787;53.316;8.670;2023-12-29T09:25:38;21.90;;;4.03;;
46815;SDS011;32787;53.316;8.670;2023-12-29T09:28:04;23.98;;;3.58;;
46815;SDS011;32787;53.316;8.670;2023-12-29T09:30:29;22.75;;;3.65;;
46815;SDS011;32787;53.316;8.670;2023-12-29T09:32:55;25.45;;;3.90;;
46815;SDS011;32787;53.316;8.670;2023-12-29T09:35:21;21.85;;;4.05;;
46815;SDS011;32787;53.316;8.670;2023-12-29T09:37:50;20.10;;;3.28;;
46815;SDS011;32787;53.316;8.670;2023-12-29T09:40:15;25.13;;;3.78;;
46815;SDS011;32787;53.316;8.670;2023-12-29T09:42:42;17.92;;;3.38;;
46815;SDS011;32787;53.316;8.670;2023-12-29T09:45:10;22.67;;;3.53;;
46815;SDS011;32787;53.316;8.670;2023-12-29T09:47:41;20.40;;;3.53;;
46815;SDS011;32787;53.316;8.670;2023-12-29T09:50:11;15.63;;;2.63;;
46815;SDS011;32787;53.316;8.670;2023-12-29T09:52:38;18.67;;;3.08;;
46815;SDS011;32787;53.316;8.670;2023-12-29T09:55:08;14.98;;;2.40;;
46815;SDS011;32787;53.316;8.670;2023-12-29T09:57:38;16.92;;;2.78;;
46815;SDS011;32787;53.316;8.670;2023-12-29T10:00:05;23.08;;;3.65;;
46815;SDS011;32787;53.316;8.670;2023-12-29T10:02:35;21.90;;;3.40;;
46815;SDS011;32787;53.316;8.670;2023-12-29T10:05:02;19.33;;;3.13;;
46815;SDS011;32787;53.316;8.670;2023-12-29T10:07:30;14.05;;;2.92;;
46815;SDS011;32787;53.316;8.670;2023-12-29T10:10:00;16.85;;;4.03;;
46815;SDS011;32787;53.316;8.670;2023-12-29T10:12:27;24.85;;;3.40;;
46815;SDS011;32787;53.316;8.670;2023-12-29T10:15:12;20.23;;;3.53;;
46815;SDS011;32787;53.316;8.670;2023-12-29T10:20:55;29.88;;;4.53;;
46815;SDS011;32787;53.316;8.670;2023-12-29T10:26:03;22.50;;;4.13;;
46815;SDS011;32787;53.316;8.670;2023-12-29T10:28:31;21.27;;;4.22;;
46815;SDS011;32787;53.316;8.670;2023-12-29T10:30:57;16.70;;;3.40;;
46815;SDS011;32787;53.316;8.670;2023-12-29T10:33:23;16.85;;;3.28;;
46815;SDS011;32787;53.316;8.670;2023-12-29T10:35:58;18.85;;;2.53;;
46815;SDS011;32787;53.316;8.670;2023-12-29T10:38:32;15.63;;;2.70;;
46815;SDS011;32787;53.316;8.670;2023-12-29T10:41:14;11.50;;;1.92;;
46815;SDS011;32787;53.316;8.670;2023-12-29T10:43:41;13.45;;;3.25;;
46815;SDS011;32787;53.316;8.670;2023-12-29T10:46:09;12.20;;;2.00;;
46815;SDS011;32787;53.316;8.670;2023-12-29T10:48:36;12.85;;;2.65;;
46815;SDS011;32787;53.316;8.670;2023-12-29T10:51:02;15.95;;;3.33;;
46815;SDS011;32787;53.316;8.670;2023-12-29T10:53:35;14.60;;;2.95;;
46815;SDS011;32787;53.316;8.670;2023-12-29T10:56:02;6.95;;;2.42;;
46815;SDS011;32787;53.316;8.670;2023-12-29T10:58:28;15.82;;;2.70;;
46815;SDS011;32787;53.316;8.670;2023-12-29T11:00:58;12.10;;;3.03;;
46815;SDS011;32787;53.316;8.670;2023-12-29T11:03:26;12.90;;;3.03;;
46815;SDS011;32787;53.316;8.670;2023-12-29T11:05:58;12.25;;;2.85;;
46815;SDS011;32787;53.316;8.670;2023-12-29T11:08:26;10.93;;;2.42;;
46815;SDS011;32787;53.316;8.670;2023-12-29T11:10:52;16.95;;;2.95;;
46815;SDS011;32787;53.316;8.670;2023-12-29T11:13:20;14.00;;;2.80;;
46815;SDS011;32787;53.316;8.670;2023-12-29T11:15:47;10.27;;;2.30;;
46815;SDS011;32787;53.316;8.670;2023-12-29T11:18:13;14.55;;;2.55;;
46815;SDS011;32787;53.316;8.670;2023-12-29T11:20:40;11.88;;;2.75;;
46815;SDS011;32787;53.316;8.670;2023-12-29T11:23:10;16.42;;;2.92;;
46815;SDS011;32787;53.316;8.670;2023-12-29T11:25:38;13.57;;;2.40;;
46815;SDS011;32787;53.316;8.670;2023-12-29T11:28:04;14.13;;;2.65;;
46815;SDS011;32787;53.316;8.670;2023-12-29T11:30:37;17.05;;;2.38;;
46815;SDS011;32787;53.316;8.670;2023-12-29T11:33:12;15.98;;;2.72;;
46815;SDS011;32787;53.316;8.670;2023-12-29T11:44:07;15.27;;;2.60;;
46815;SDS011;32787;53.316;8.670;2023-12-29T11:49:08;15.77;;;2.50;;
46815;SDS011;32787;53.316;8.670;2023-12-29T11:51:44;10.38;;;2.47;;
46815;SDS011;32787;53.316;8.670;2023-12-29T11:54:25;11.60;;;2.40;;
46815;SDS011;32787;53.316;8.670;2023-12-29T11:56:54;13.48;;;2.40;;
46815;SDS011;32787;53.316;8.670;2023-12-29T12:01:50;11.93;;;2.33;;
46815;SDS011;32787;53.316;8.670;2023-12-29T12:07:09;16.45;;;2.80;;
46815;SDS011;32787;53.316;8.670;2023-12-29T12:09:38;10.32;;;2.25;;
46815;SDS011;32787;53.316;8.670;2023-12-29T12:12:04;11.40;;;2.63;;
46815;SDS011;32787;53.316;8.670;2023-12-29T12:14:49;12.57;;;3.17;;
46815;SDS011;32787;53.316;8.670;2023-12-29T12:17:29;10.50;;;2.50;;
46815;SDS011;32787;53.316;8.670;2023-12-29T12:20:08;12.75;;;2.50;;
46815;SDS011;32787;53.316;8.670;2023-12-29T12:22:34;11.35;;;2.60;;
46815;SDS011;32787;53.316;8.670;2023-12-29T12:25:01;15.05;;;2.40;;
46815;SDS011;32787;53.316;8.670;2023-12-29T12:27:28;12.50;;;2.75;;
46815;SDS011;32787;53.316;8.670;2023-12-29T12:29:55;11.32;;;2.25;;
46815;SDS011;32787;53.316;8.670;2023-12-29T12:32:24;8.23;;;2.17;;
46815;SDS011;32787;53.316;8.670;2023-12-29T12:34:51;18.30;;;2.67;;
46815;SDS011;32787;53.316;8.670;2023-12-29T12:37:23;14.07;;;2.40;;
46815;SDS011;32787;53.316;8.670;2023-12-29T12:39:53;11.50;;;2.22;;
46815;SDS011;32787;53.316;8.670;2023-12-29T12:42:20;19.02;;;3.13;;
46815;SDS011;32787;53.316;8.670;2023-12-29T12:44:53;17.40;;;2.60;;
46815;SDS011;32787;53.316;8.670;2023-12-29T12:47:26;17.67;;;3.17;;
46815;SDS011;32787;53.316;8.670;2023-12-29T12:49:57;19.17;;;2.72;;
46815;SDS011;32787;53.316;8.670;2023-12-29T12:52:25;18.20;;;3.10;;
46815;SDS011;32787;53.316;8.670;2023-12-29T12:54:51;18.92;;;2.47;;
46815;SDS011;32787;53.316;8.670;2023-12-29T12:57:19;20.45;;;2.40;;
46815;SDS011;32787;53.316;8.670;2023-12-29T12:59:46;13.48;;;2.63;;
46815;SDS011;32787;53.316;8.670;2023-12-29T13:02:12;17.05;;;3.30;;
46815;SDS011;32787;53.316;8.670;2023-12-29T13:04:39;17.55;;;2.63;;
46815;SDS011;32787;53.316;8.670;2023-12-29T13:07:06;14.20;;;2.47;;
46815;SDS011;32787;53.316;8.670;2023-12-29T13:09:35;12.90;;;2.15;;
46815;SDS011;32787;53.316;8.670;2023-12-29T13:12:08;10.35;;;2.40;;
46815;SDS011;32787;53.316;8.670;2023-12-29T13:14:35;15.30;;;2.42;;
46815;SDS011;32787;53.316;8.670;2023-12-29T13:17:05;15.10;;;2.30;;
46815;SDS011;32787;53.316;8.670;2023-12-29T13:19:31;13.20;;;2.30;;
46815;SDS011;32787;53.316;8.670;2023-12-29T13:21:59;16.02;;;2.17;;
46815;SDS011;32787;53.316;8.670;2023-12-29T13:24:25;12.93;;;2.10;;
46815;SDS011;32787;53.316;8.670;2023-12-29T13:26:52;14.50;;;2.35;;
46815;SDS011;32787;53.316;8.670;2023-12-29T13:29:23;15.73;;;2.25;;
46815;SDS011;32787;53.316;8.670;2023-12-29T13:31:50;16.75;;;3.50;;
46815;SDS011;32787;53.316;8.670;2023-12-29T13:35:05;18.20;;;2.88;;
46815;SDS011;32787;53.316;8.670;2023-12-29T13:37:24;16.23;;;2.75;;
46815;SDS011;32787;53.316;8.670;2023-12-29T13:42:34;15.05;;;2.22;;
46815;SDS011;32787;53.316;8.670;2023-12-29T13:45:01;20.23;;;2.80;;
46815;SDS011;32787;53.316;8.670;2023-12-29T13:47:29;15.30;;;2.15;;
46815;SDS011;32787;53.316;8.670;2023-12-29T13:49:56;17.75;;;3.22;;
46815;SDS011;32787;53.316;8.670;2023-12-29T13:52:22;20.65;;;3.05;;
46815;SDS011;32787;53.316;8.670;2023-12-29T13:54:48;15.88;;;2.63;;
46815;SDS011;32787;53.316;8.670;2023-12-29T13:57:15;14.30;;;2.30;;
46815;SDS011;32787;53.316;8.670;2023-12-29T13:59:41;16.05;;;2.75;;
46815;SDS011;32787;53.316;8.670;2023-12-29T14:02:20;14.88;;;2.40;;
46815;SDS011;32787;53.316;8.670;2023-12-29T14:05:02;20.17;;;3.05;;
46815;SDS011;32787;53.316;8.670;2023-12-29T14:07:36;15.90;;;2.28;;
46815;SDS011;32787;53.316;8.670;2023-12-29T14:10:01;23.90;;;2.83;;
46815;SDS011;32787;53.316;8.670;2023-12-29T14:12:27;15.90;;;2.60;;
46815;SDS011;32787;53.316;8.670;2023-12-29T14:14:53;13.68;;;1.90;;
46815;SDS011;32787;53.316;8.670;2023-12-29T14:17:22;14.10;;;2.38;;
46815;SDS011;32787;53.316;8.670;2023-12-29T14:19:48;10.50;;;1.92;;
46815;SDS011;32787;53.316;8.670;2023-12-29T14:22:21;17.38;;;2.97;;
46815;SDS011;32787;53.316;8.670;2023-12-29T14:25:03;16.55;;;2.65;;
46815;SDS011;32787;53.316;8.670;2023-12-29T14:27:30;14.63;;;2.55;;
46815;SDS011;32787;53.316;8.670;2023-12-29T14:29:56;13.90;;;3.03;;
46815;SDS011;32787;53.316;8.670;2023-12-29T14:32:22;18.08;;;2.60;;
46815;SDS011;32787;53.316;8.670;2023-12-29T14:34:49;19.88;;;2.92;;
46815;SDS011;32787;53.316;8.670;2023-12-29T14:37:20;15.13;;;2.67;;
46815;SDS011;32787;53.316;8.670;2023-12-29T14:39:52;13.40;;;2.22;;
46815;SDS011;32787;53.316;8.670;2023-12-29T14:42:17;19.83;;;2.97;;
46815;SDS011;32787;53.316;8.670;2023-12-29T14:44:46;17.42;;;2.88;;
46815;SDS011;32787;53.316;8.670;2023-12-29T14:47:15;13.07;;;2.17;;
46815;SDS011;32787;53.316;8.670;2023-12-29T14:49:42;20.00;;;3.30;;
46815;SDS011;32787;53.316;8.670;2023-12-29T14:52:08;15.40;;;2.30;;
46815;SDS011;32787;53.316;8.670;2023-12-29T14:54:34;12.75;;;2.38;;
46815;SDS011;32787;53.316;8.670;2023-12-29T14:56:59;12.48;;;2.13;;
46815;SDS011;32787;53.316;8.670;2023-12-29T14:59:25;14.65;;;2.45;;